sensor_id;sensor_type;location;lat;lon;timestamp;pressure;altitude;pressure_sealevel;temperature;humidity
23619;BME280;18207;32.078;34.818;2023-02-13T00:00:32;101809.00;;;19.85;37.30
23619;BME280;18207;32.078;34.818;2023-02-13T00:03:04;101806.22;;;19.85;36.82
23619;BME280;18207;32.078;34.818;2023-02-13T00:05:35;101801.44;;;19.86;36.88
23619;BME280;18207;32.078;34.818;2023-02-13T00:08:07;101799.50;;;19.86;37.07
23619;BME280;18207;32.078;34.818;2023-02-13T00:10:39;101791.94;;;19.87;37.07
23619;BME280;18207;32.078;34.818;2023-02-13T00:13:09;101793.94;;;19.86;37.16
23619;BME280;18207;32.078;34.818;2023-02-13T00:15:39;101795.56;;;19.87;36.98
23619;BME280;18207;32.078;34.818;2023-02-13T00:18:10;101796.72;;;19.86;37.18
23619;BME280;18207;32.078;34.818;2023-02-13T00:20:40;101795.56;;;19.87;37.40
23619;BME280;18207;32.078;34.818;2023-02-13T00:23:13;101790.81;;;19.88;37.13
23619;BME280;18207;32.078;34.818;2023-02-13T00:25:44;101788.03;;;19.88;37.06
23619;BME280;18207;32.078;34.818;2023-02-13T00:28:15;101788.03;;;19.88;37.27
23619;BME280;18207;32.078;34.818;2023-02-13T00:30:45;101792.47;;;19.89;37.28
23619;BME280;18207;32.078;34.818;2023-02-13T00:33:16;101790.81;;;19.88;37.60
23619;BME280;18207;32.078;34.818;2023-02-13T00:35:47;101786.91;;;19.89;37.56
23619;BME280;18207;32.078;34.818;2023-02-13T00:38:19;101790.22;;;19.91;37.62
23619;BME280;18207;32.078;34.818;2023-02-13T00:40:49;101788.56;;;19.90;37.31
23619;BME280;18207;32.078;34.818;2023-02-13T00:43:19;101786.59;;;19.90;37.67
23619;BME280;18207;32.078;34.818;2023-02-13T00:45:50;101792.16;;;19.90;37.65
23619;BME280;18207;32.078;34.818;2023-02-13T00:48:20;101794.13;;;19.90;37.55
23619;BME280;18207;32.078;34.818;2023-02-13T00:50:51;101784.63;;;19.91;37.36
23619;BME280;18207;32.078;34.818;2023-02-13T00:53:24;101786.59;;;19.90;37.70
23619;BME280;18207;32.078;34.818;2023-02-13T00:55:55;101779.34;;;19.89;37.80
23619;BME280;18207;32.078;34.818;2023-02-13T00:58:25;101782.13;;;19.89;37.45
23619;BME280;18207;32.078;34.818;2023-02-13T01:00:57;101783.25;;;19.88;37.61
23619;BME280;18207;32.078;34.818;2023-02-13T01:03:28;101787.19;;;19.87;37.24
23619;BME280;18207;32.078;34.818;2023-02-13T01:05:58;101778.81;;;19.87;37.48
23619;BME280;18207;32.078;34.818;2023-02-13T01:08:31;101785.25;;;19.88;37.55
23619;BME280;18207;32.078;34.818;2023-02-13T01:11:02;101784.41;;;19.87;37.45
23619;BME280;18207;32.078;34.818;2023-02-13T01:13:33;101790.81;;;19.88;37.37
23619;BME280;18207;32.078;34.818;2023-02-13T01:16:05;101782.78;;;19.86;37.80
23619;BME280;18207;32.078;34.818;2023-02-13T01:18:36;101783.91;;;19.85;37.34
23619;BME280;18207;32.078;34.818;2023-02-13T01:21:14;101780.25;;;19.85;37.57
23619;BME280;18207;32.078;34.818;2023-02-13T01:23:48;101779.72;;;19.83;37.72
23619;BME280;18207;32.078;34.818;2023-02-13T01:26:21;101774.78;;;19.80;37.73
23619;BME280;18207;32.078;34.818;2023-02-13T01:28:53;101781.50;;;19.79;37.62
23619;BME280;18207;32.078;34.818;2023-02-13T01:31:26;101782.94;;;19.77;37.63
23619;BME280;18207;32.078;34.818;2023-02-13T01:33:57;101775.72;;;19.76;37.47
23619;BME280;18207;32.078;34.818;2023-02-13T01:36:27;101789.66;;;19.76;37.93
23619;BME280;18207;32.078;34.818;2023-02-13T01:38:58;101778.50;;;19.76;37.84
23619;BME280;18207;32.078;34.818;2023-02-13T01:41:29;101778.50;;;19.76;37.89
23619;BME280;18207;32.078;34.818;2023-02-13T01:44:00;101782.41;;;19.75;37.81
23619;BME280;18207;32.078;34.818;2023-02-13T01:46:36;101777.13;;;19.73;37.72
23619;BME280;18207;32.078;34.818;2023-02-13T01:49:13;101784.34;;;19.74;37.65
23619;BME280;18207;32.078;34.818;2023-02-13T01:51:48;101785.81;;;19.72;37.66
23619;BME280;18207;32.078;34.818;2023-02-13T01:54:26;101784.16;;;19.71;37.80
23619;BME280;18207;32.078;34.818;2023-02-13T01:57:03;101779.19;;;19.68;37.84
23619;BME280;18207;32.078;34.818;2023-02-13T01:59:45;101771.13;;;19.66;38.14
23619;BME280;18207;32.078;34.818;2023-02-13T02:02:18;101768.66;;;19.65;37.70
23619;BME280;18207;32.078;34.818;2023-02-13T02:04:51;101768.94;;;19.63;37.93
23619;BME280;18207;32.078;34.818;2023-02-13T02:07:25;101765.31;;;19.63;37.61
23619;BME280;18207;32.078;34.818;2023-02-13T02:10:02;101768.44;;;19.61;37.66
23619;BME280;18207;32.078;34.818;2023-02-13T02:12:41;101763.97;;;19.60;37.89
23619;BME280;18207;32.078;34.818;2023-02-13T02:15:13;101773.16;;;19.61;38.20
23619;BME280;18207;32.078;34.818;2023-02-13T02:17:43;101778.75;;;19.61;37.90
23619;BME280;18207;32.078;34.818;2023-02-13T02:20:29;101777.59;;;19.62;38.10
23619;BME280;18207;32.078;34.818;2023-02-13T02:23:35;101779.28;;;19.63;38.19
23619;BME280;18207;32.078;34.818;2023-02-13T02:27:09;101774.50;;;19.63;38.07
23619;BME280;18207;32.078;34.818;2023-02-13T02:33:27;101772.56;;;19.64;38.31
23619;BME280;18207;32.078;34.818;2023-02-13T02:36:20;101770.31;;;19.66;38.26
23619;BME280;18207;32.078;34.818;2023-02-13T02:39:04;101777.22;;;19.68;37.85
23619;BME280;18207;32.078;34.818;2023-02-13T02:41:55;101768.03;;;19.68;38.13
23619;BME280;18207;32.078;34.818;2023-02-13T02:44:35;101772.47;;;19.69;38.36
23619;BME280;18207;32.078;34.818;2023-02-13T02:47:21;101778.03;;;19.69;38.33
23619;BME280;18207;32.078;34.818;2023-02-13T02:50:33;101772.47;;;19.69;38.12
23619;BME280;18207;32.078;34.818;2023-02-13T02:53:27;101777.75;;;19.70;38.35
23619;BME280;18207;32.078;34.818;2023-02-13T02:56:07;101781.34;;;19.71;38.27
23619;BME280;18207;32.078;34.818;2023-02-13T02:58:45;101785.81;;;19.72;38.23
23619;BME280;18207;32.078;34.818;2023-02-13T03:01:35;101791.06;;;19.73;38.29
23619;BME280;18207;32.078;34.818;2023-02-13T03:04:30;101789.94;;;19.74;38.27
23619;BME280;18207;32.078;34.818;2023-02-13T03:07:21;101794.69;;;19.74;38.15
23619;BME280;18207;32.078;34.818;2023-02-13T03:09:55;101794.38;;;19.75;38.18
23619;BME280;18207;32.078;34.818;2023-02-13T03:12:50;101801.09;;;19.74;38.47
23619;BME280;18207;32.078;34.818;2023-02-13T03:15:41;101797.81;;;19.72;37.93
23619;BME280;18207;32.078;34.818;2023-02-13T03:18:26;101805.63;;;19.70;38.05
23619;BME280;18207;32.078;34.818;2023-02-13T03:21:21;101807.91;;;19.68;38.28
23619;BME280;18207;32.078;34.818;2023-02-13T03:24:27;101805.72;;;19.65;38.26
23619;BME280;18207;32.078;34.818;2023-02-13T03:27:08;101805.19;;;19.63;37.93
23619;BME280;18207;32.078;34.818;2023-02-13T03:29:48;101806.63;;;19.61;37.89
23619;BME280;18207;32.078;34.818;2023-02-13T03:32:45;101808.06;;;19.58;38.00
23619;BME280;18207;32.078;34.818;2023-02-13T03:35:31;101801.16;;;19.56;38.03
23619;BME280;18207;32.078;34.818;2023-02-13T03:38:31;101809.28;;;19.52;37.75
23619;BME280;18207;32.078;34.818;2023-02-13T03:41:14;101811.53;;;19.50;37.96
23619;BME280;18207;32.078;34.818;2023-02-13T03:44:12;101812.97;;;19.48;38.05
23619;BME280;18207;32.078;34.818;2023-02-13T03:46:49;101813.78;;;19.48;38.00
23619;BME280;18207;32.078;34.818;2023-02-13T03:49:25;101822.16;;;19.48;38.38
23619;BME280;18207;32.078;34.818;2023-02-13T03:52:22;101817.72;;;19.47;37.85
23619;BME280;18207;32.078;34.818;2023-02-13T03:54:59;101821.34;;;19.48;37.99
23619;BME280;18207;32.078;34.818;2023-02-13T03:57:51;101824.41;;;19.46;37.85
23619;BME280;18207;32.078;34.818;2023-02-13T04:00:45;101815.25;;;19.46;38.15
23619;BME280;18207;32.078;34.818;2023-02-13T04:03:24;101819.97;;;19.45;38.25
23619;BME280;18207;32.078;34.818;2023-02-13T04:06:03;101820.28;;;19.44;38.13
23619;BME280;18207;32.078;34.818;2023-02-13T04:08:35;101827.50;;;19.45;38.25
23619;BME280;18207;32.078;34.818;2023-02-13T04:11:14;101826.66;;;19.44;38.05
23619;BME280;18207;32.078;34.818;2023-02-13T04:14:01;101826.66;;;19.44;37.82
23619;BME280;18207;32.078;34.818;2023-02-13T04:16:39;101834.22;;;19.44;38.15
23619;BME280;18207;32.078;34.818;2023-02-13T04:19:11;101826.66;;;19.44;38.30
23619;BME280;18207;32.078;34.818;2023-02-13T04:21:42;101833.91;;;19.45;38.06
23619;BME280;18207;32.078;34.818;2023-02-13T04:24:12;101835.56;;;19.46;38.06
23619;BME280;18207;32.078;34.818;2023-02-13T04:26:44;101834.13;;;19.49;37.92
23619;BME280;18207;32.078;34.818;2023-02-13T04:29:17;101845.00;;;19.50;38.31
23619;BME280;18207;32.078;34.818;2023-02-13T04:31:48;101836.63;;;19.50;37.96
23619;BME280;18207;32.078;34.818;2023-02-13T04:34:19;101840.25;;;19.51;38.37
23619;BME280;18207;32.078;34.818;2023-02-13T04:36:50;101831.06;;;19.50;38.55
23619;BME280;18207;32.078;34.818;2023-02-13T04:39:21;101833.84;;;19.50;38.56
23619;BME280;18207;32.078;34.818;2023-02-13T04:41:51;101845.00;;;19.50;38.51
23619;BME280;18207;32.078;34.818;2023-02-13T04:44:24;101842.22;;;19.50;37.90
23619;BME280;18207;32.078;34.818;2023-02-13T04:46:55;101840.25;;;19.51;38.44
23619;BME280;18207;32.078;34.818;2023-02-13T04:49:25;101846.66;;;19.51;38.26
23619;BME280;18207;32.078;34.818;2023-02-13T04:51:56;101847.47;;;19.52;38.34
23619;BME280;18207;32.078;34.818;2023-02-13T04:54:27;101849.44;;;19.51;38.22
23619;BME280;18207;32.078;34.818;2023-02-13T04:56:57;101856.69;;;19.52;38.42
23619;BME280;18207;32.078;34.818;2023-02-13T04:59:30;101855.53;;;19.53;38.35
23619;BME280;18207;32.078;34.818;2023-02-13T05:02:01;101851.91;;;19.53;38.27
23619;BME280;18207;32.078;34.818;2023-02-13T05:04:33;101849.13;;;19.53;38.45
23619;BME280;18207;32.078;34.818;2023-02-13T05:07:04;101857.50;;;19.53;38.53
23619;BME280;18207;32.078;34.818;2023-02-13T05:09:35;101862.75;;;19.54;37.98
23619;BME280;18207;32.078;34.818;2023-02-13T05:12:08;101864.41;;;19.55;38.33
23619;BME280;18207;32.078;34.818;2023-02-13T05:14:41;101868.88;;;19.56;38.26
23619;BME280;18207;32.078;34.818;2023-02-13T05:17:12;101870.53;;;19.57;38.56
23619;BME280;18207;32.078;34.818;2023-02-13T05:19:42;101876.09;;;19.57;38.39
23619;BME280;18207;32.078;34.818;2023-02-13T05:22:13;101874.97;;;19.58;38.34
23619;BME280;18207;32.078;34.818;2023-02-13T05:25:06;101877.78;;;19.58;38.29
23619;BME280;18207;32.078;34.818;2023-02-13T05:27:37;101882.22;;;19.59;38.46
23619;BME280;18207;32.078;34.818;2023-02-13T05:30:12;101879.13;;;19.61;38.46
23619;BME280;18207;32.078;34.818;2023-02-13T05:32:45;101885.53;;;19.61;38.53
23619;BME280;18207;32.078;34.818;2023-02-13T05:35:18;101890.81;;;19.63;38.21
23619;BME280;18207;32.078;34.818;2023-02-13T05:37:49;101896.06;;;19.64;38.41
23619;BME280;18207;32.078;34.818;2023-02-13T05:40:20;101897.72;;;19.65;38.74
23619;BME280;18207;32.078;34.818;2023-02-13T05:42:53;101901.38;;;19.66;38.35
23619;BME280;18207;32.078;34.818;2023-02-13T05:45:26;101896.59;;;19.66;38.30
23619;BME280;18207;32.078;34.818;2023-02-13T05:47:57;101899.91;;;19.68;38.14
23619;BME280;18207;32.078;34.818;2023-02-13T05:50:30;101907.16;;;19.69;38.23
23619;BME280;18207;32.078;34.818;2023-02-13T05:53:00;101896.53;;;19.71;38.45
23619;BME280;18207;32.078;34.818;2023-02-13T05:55:30;101889.84;;;19.72;38.37
23619;BME280;18207;32.078;34.818;2023-02-13T05:58:02;101902.34;;;19.75;38.67
23619;BME280;18207;32.078;34.818;2023-02-13T06:00:39;101891.72;;;19.77;38.39
23619;BME280;18207;32.078;34.818;2023-02-13T06:03:09;101891.72;;;19.77;38.79
23619;BME280;18207;32.078;34.818;2023-02-13T06:05:39;101906.16;;;19.78;38.44
23619;BME280;18207;32.078;34.818;2023-02-13T06:08:10;101900.31;;;19.80;38.30
23619;BME280;18207;32.078;34.818;2023-02-13T06:10:41;101900.84;;;19.82;38.89
23619;BME280;18207;32.078;34.818;2023-02-13T06:13:12;101899.69;;;19.83;38.45
23619;BME280;18207;32.078;34.818;2023-02-13T06:15:45;101899.41;;;19.84;38.49
23619;BME280;18207;32.078;34.818;2023-02-13T06:18:15;101901.06;;;19.85;38.37
23619;BME280;18207;32.078;34.818;2023-02-13T06:20:47;101902.41;;;19.88;38.39
23619;BME280;18207;32.078;34.818;2023-02-13T06:23:18;101907.97;;;19.88;38.24
23619;BME280;18207;32.078;34.818;2023-02-13T06:25:49;101899.28;;;19.89;38.20
23619;BME280;18207;32.078;34.818;2023-02-13T06:28:20;101904.59;;;19.91;38.17
23619;BME280;18207;32.078;34.818;2023-02-13T06:30:52;101903.47;;;19.92;38.57
23619;BME280;18207;32.078;34.818;2023-02-13T06:33:24;101896.22;;;19.91;38.15
23619;BME280;18207;32.078;34.818;2023-02-13T06:35:55;101899.84;;;19.91;38.49
23619;BME280;18207;32.078;34.818;2023-02-13T06:38:25;101899.00;;;19.91;38.49
23619;BME280;18207;32.078;34.818;2023-02-13T06:41:00;101895.91;;;19.92;38.58
23619;BME280;18207;32.078;34.818;2023-02-13T06:43:31;101895.91;;;19.92;38.68
23619;BME280;18207;32.078;34.818;2023-02-13T06:46:07;101902.03;;;19.94;38.60
23619;BME280;18207;32.078;34.818;2023-02-13T06:48:38;101899.22;;;19.94;38.81
23619;BME280;18207;32.078;34.818;2023-02-13T06:51:08;101905.38;;;19.96;38.65
23619;BME280;18207;32.078;34.818;2023-02-13T06:53:39;101902.28;;;19.98;38.41
23619;BME280;18207;32.078;34.818;2023-02-13T06:56:10;101904.75;;;19.99;38.37
23619;BME280;18207;32.078;34.818;2023-02-13T06:58:40;101908.91;;;20.02;38.41
23619;BME280;18207;32.078;34.818;2023-02-13T07:01:13;101903.34;;;20.02;38.71
23619;BME280;18207;32.078;34.818;2023-02-13T07:03:44;101910.53;;;20.03;38.56
23619;BME280;18207;32.078;34.818;2023-02-13T07:06:19;101912.75;;;20.06;38.63
23619;BME280;18207;32.078;34.818;2023-02-13T07:08:51;101904.06;;;20.07;38.51
23619;BME280;18207;32.078;34.818;2023-02-13T07:11:24;101909.03;;;20.10;38.77
23619;BME280;18207;32.078;34.818;2023-02-13T07:13:55;101912.03;;;20.14;38.48
23619;BME280;18207;32.078;34.818;2023-02-13T07:16:28;101905.03;;;20.16;38.28
23619;BME280;18207;32.078;34.818;2023-02-13T07:18:59;101902.97;;;20.22;38.77
23619;BME280;18207;32.078;34.818;2023-02-13T07:21:30;101920.78;;;20.26;38.63
23619;BME280;18207;32.078;34.818;2023-02-13T07:24:01;101912.31;;;20.31;38.86
23619;BME280;18207;32.078;34.818;2023-02-13T07:26:34;101912.22;;;20.36;38.88
23619;BME280;18207;32.078;34.818;2023-02-13T07:29:05;101911.84;;;20.42;39.14
23619;BME280;18207;32.078;34.818;2023-02-13T07:31:41;101906.06;;;20.52;39.25
23619;BME280;18207;32.078;34.818;2023-02-13T07:34:11;101909.81;;;20.61;38.93
23619;BME280;18207;32.078;34.818;2023-02-13T07:36:42;101911.28;;;20.72;39.17
23619;BME280;18207;32.078;34.818;2023-02-13T07:39:13;101908.84;;;20.84;39.60
23619;BME280;18207;32.078;34.818;2023-02-13T07:41:43;101908.31;;;20.95;39.42
23619;BME280;18207;32.078;34.818;2023-02-13T07:44:14;101911.72;;;21.06;38.89
23619;BME280;18207;32.078;34.818;2023-02-13T07:46:46;101900.97;;;21.13;39.24
23619;BME280;18207;32.078;34.818;2023-02-13T07:49:17;101903.97;;;21.16;38.89
23619;BME280;18207;32.078;34.818;2023-02-13T07:51:47;101904.16;;;21.20;38.65
23619;BME280;18207;32.078;34.818;2023-02-13T07:54:18;101901.25;;;21.25;38.93
23619;BME280;18207;32.078;34.818;2023-02-13T07:56:48;101898.34;;;21.30;38.89
23619;BME280;18207;32.078;34.818;2023-02-13T07:59:19;101894.81;;;21.38;38.63
23619;BME280;18207;32.078;34.818;2023-02-13T08:01:51;101895.22;;;21.45;39.02
23619;BME280;18207;32.078;34.818;2023-02-13T08:04:22;101886.91;;;21.53;39.00
23619;BME280;18207;32.078;34.818;2023-02-13T08:06:53;101880.31;;;21.62;38.78
23619;BME280;18207;32.078;34.818;2023-02-13T08:09:23;101883.34;;;21.74;38.62
23619;BME280;18207;32.078;34.818;2023-02-13T08:12:10;101881.16;;;21.85;39.13
23619;BME280;18207;32.078;34.818;2023-02-13T08:14:40;101878.91;;;21.95;38.59
23619;BME280;18207;32.078;34.818;2023-02-13T08:17:13;101872.78;;;22.07;38.38
23619;BME280;18207;32.078;34.818;2023-02-13T08:19:42;101878.41;;;22.15;38.84
23619;BME280;18207;32.078;34.818;2023-02-13T08:22:13;101874.03;;;22.23;38.48
23619;BME280;18207;32.078;34.818;2023-02-13T08:24:44;101876.38;;;22.29;38.14
23619;BME280;18207;32.078;34.818;2023-02-13T08:27:15;101874.81;;;22.37;38.49
23619;BME280;18207;32.078;34.818;2023-02-13T08:29:45;101865.13;;;22.42;37.80
23619;BME280;18207;32.078;34.818;2023-02-13T08:32:22;101871.09;;;22.49;37.79
23619;BME280;18207;32.078;34.818;2023-02-13T08:34:52;101866.69;;;22.57;37.64
23619;BME280;18207;32.078;34.818;2023-02-13T08:37:24;101859.94;;;22.66;38.15
23619;BME280;18207;32.078;34.818;2023-02-13T08:39:55;101857.38;;;22.78;37.64
23619;BME280;18207;32.078;34.818;2023-02-13T08:42:26;101857.41;;;22.87;37.60
23619;BME280;18207;32.078;34.818;2023-02-13T08:44:58;101853.31;;;22.93;37.13
23619;BME280;18207;32.078;34.818;2023-02-13T08:47:30;101846.41;;;22.99;37.18
23619;BME280;18207;32.078;34.818;2023-02-13T08:50:01;101840.13;;;23.02;36.98
23619;BME280;18207;32.078;34.818;2023-02-13T08:52:33;101841.19;;;23.06;36.91
23619;BME280;18207;32.078;34.818;2023-02-13T08:55:03;101835.75;;;23.09;36.69
23619;BME280;18207;32.078;34.818;2023-02-13T08:57:34;101833.09;;;23.13;36.84
23619;BME280;18207;32.078;34.818;2023-02-13T09:00:06;101824.06;;;23.16;36.60
23619;BME280;18207;32.078;34.818;2023-02-13T09:02:38;101825.06;;;23.20;36.59
23619;BME280;18207;32.078;34.818;2023-02-13T09:05:09;101820.78;;;23.22;36.57
23619;BME280;18207;32.078;34.818;2023-02-13T09:07:39;101814.16;;;23.27;36.55
23619;BME280;18207;32.078;34.818;2023-02-13T09:10:10;101813.19;;;23.31;36.36
23619;BME280;18207;32.078;34.818;2023-02-13T09:12:41;101804.94;;;23.34;36.50
23619;BME280;18207;32.078;34.818;2023-02-13T09:15:12;101814.03;;;23.40;36.16
23619;BME280;18207;32.078;34.818;2023-02-13T09:17:44;101813.03;;;23.44;36.23
23619;BME280;18207;32.078;34.818;2023-02-13T09:20:16;101805.28;;;23.50;36.25
23619;BME280;18207;32.078;34.818;2023-02-13T09:22:46;101803.47;;;23.54;35.99
23619;BME280;18207;32.078;34.818;2023-02-13T09:25:17;101803.78;;;23.61;36.23
23619;BME280;18207;32.078;34.818;2023-02-13T09:27:49;101796.84;;;23.67;36.13
23619;BME280;18207;32.078;34.818;2023-02-13T09:30:19;101799.50;;;23.72;36.11
23619;BME280;18207;32.078;34.818;2023-02-13T09:32:55;101796.22;;;23.78;36.19
23619;BME280;18207;32.078;34.818;2023-02-13T09:35:27;101799.19;;;23.82;35.72
23619;BME280;18207;32.078;34.818;2023-02-13T09:38:00;101797.03;;;23.87;35.59
23619;BME280;18207;32.078;34.818;2023-02-13T09:40:35;101784.81;;;23.92;35.89
23619;BME280;18207;32.078;34.818;2023-02-13T09:43:13;101779.00;;;23.97;35.36
23619;BME280;18207;32.078;34.818;2023-02-13T09:45:49;101784.47;;;24.02;35.70
23619;BME280;18207;32.078;34.818;2023-02-13T09:48:29;101777.00;;;24.06;35.39
23619;BME280;18207;32.078;34.818;2023-02-13T09:51:03;101774.69;;;24.08;35.11
23619;BME280;18207;32.078;34.818;2023-02-13T09:53:34;101760.78;;;24.11;35.07
23619;BME280;18207;32.078;34.818;2023-02-13T09:56:12;101759.78;;;24.16;35.08
23619;BME280;18207;32.078;34.818;2023-02-13T09:58:47;101754.31;;;24.19;35.35
23619;BME280;18207;32.078;34.818;2023-02-13T10:01:29;101748.88;;;24.22;35.02
23619;BME280;18207;32.078;34.818;2023-02-13T10:04:28;101743.72;;;24.24;35.03
23619;BME280;18207;32.078;34.818;2023-02-13T10:07:15;101734.97;;;24.26;35.12
23619;BME280;18207;32.078;34.818;2023-02-13T10:10:01;101741.06;;;24.28;35.01
23619;BME280;18207;32.078;34.818;2023-02-13T10:13:00;101732.63;;;24.28;34.62
23619;BME280;18207;32.078;34.818;2023-02-13T10:15:43;101733.47;;;24.28;34.77
23619;BME280;18207;32.078;34.818;2023-02-13T10:18:22;101744.72;;;24.28;34.21
23619;BME280;18207;32.078;34.818;2023-02-13T10:20:58;101717.78;;;24.27;34.37
23619;BME280;18207;32.078;34.818;2023-02-13T10:23:37;101729.00;;;24.27;34.38
23619;BME280;18207;32.078;34.818;2023-02-13T10:26:19;101721.75;;;24.26;34.20
23619;BME280;18207;32.078;34.818;2023-02-13T10:29:00;101718.94;;;24.26;34.39
23619;BME280;18207;32.078;34.818;2023-02-13T10:31:51;101705.53;;;24.23;34.52
23619;BME280;18207;32.078;34.818;2023-02-13T10:34:27;101712.81;;;24.24;34.22
23619;BME280;18207;32.078;34.818;2023-02-13T10:37:14;101705.22;;;24.25;34.11
23619;BME280;18207;32.078;34.818;2023-02-13T10:39:51;101700.78;;;24.24;34.30
23619;BME280;18207;32.078;34.818;2023-02-13T10:42:29;101696.31;;;24.23;34.26
23619;BME280;18207;32.078;34.818;2023-02-13T10:45:22;101689.88;;;24.22;34.29
23619;BME280;18207;32.078;34.818;2023-02-13T10:48:26;101687.38;;;24.21;34.02
23619;BME280;18207;32.078;34.818;2023-02-13T10:51:10;101690.19;;;24.21;33.88
23619;BME280;18207;32.078;34.818;2023-02-13T10:54:06;101682.63;;;24.21;34.10
23619;BME280;18207;32.078;34.818;2023-02-13T10:56:48;101685.75;;;24.20;33.55
23619;BME280;18207;32.078;34.818;2023-02-13T10:59:50;101683.28;;;24.18;34.06
23619;BME280;18207;32.078;34.818;2023-02-13T11:02:27;101678.31;;;24.16;33.85
23619;BME280;18207;32.078;34.818;2023-02-13T11:05:04;101671.91;;;24.15;34.18
23619;BME280;18207;32.078;34.818;2023-02-13T11:07:42;101674.22;;;24.13;33.66
23619;BME280;18207;32.078;34.818;2023-02-13T11:10:19;101665.78;;;24.13;34.00
23619;BME280;18207;32.078;34.818;2023-02-13T11:12:51;101669.75;;;24.12;33.86
23619;BME280;18207;32.078;34.818;2023-02-13T11:15:27;101673.41;;;24.13;33.93
23619;BME280;18207;32.078;34.818;2023-02-13T11:18:18;101664.13;;;24.12;33.87
23619;BME280;18207;32.078;34.818;2023-02-13T11:21:00;101668.09;;;24.11;33.96
23619;BME280;18207;32.078;34.818;2023-02-13T11:23:42;101656.88;;;24.11;33.71
23619;BME280;18207;32.078;34.818;2023-02-13T11:26:26;101653.56;;;24.09;33.88
23619;BME280;18207;32.078;34.818;2023-02-13T11:29:00;101647.16;;;24.09;33.88
23619;BME280;18207;32.078;34.818;2023-02-13T11:31:35;101657.22;;;24.10;34.07
23619;BME280;18207;32.078;34.818;2023-02-13T11:34:24;101650.44;;;24.11;33.87
23619;BME280;18207;32.078;34.818;2023-02-13T11:37:24;101646.34;;;24.08;33.86
23619;BME280;18207;32.078;34.818;2023-02-13T11:39:58;101649.16;;;24.08;34.00
23619;BME280;18207;32.078;34.818;2023-02-13T11:42:34;101643.03;;;24.06;33.85
23619;BME280;18207;32.078;34.818;2023-02-13T11:45:19;101645.84;;;24.06;33.73
23619;BME280;18207;32.078;34.818;2023-02-13T11:47:53;101648.97;;;24.05;33.94
23619;BME280;18207;32.078;34.818;2023-02-13T11:50:27;101647.31;;;24.04;33.93
23619;BME280;18207;32.078;34.818;2023-02-13T11:53:02;101639.25;;;24.02;33.75
23619;BME280;18207;32.078;34.818;2023-02-13T11:55:36;101644.03;;;24.02;33.57
23619;BME280;18207;32.078;34.818;2023-02-13T11:58:24;101636.78;;;24.01;33.74
23619;BME280;18207;32.078;34.818;2023-02-13T12:01:23;101635.47;;;23.98;33.77
23619;BME280;18207;32.078;34.818;2023-02-13T12:04:05;101627.38;;;23.97;33.77
23619;BME280;18207;32.078;34.818;2023-02-13T12:06:36;101631.34;;;23.96;33.62
23619;BME280;18207;32.078;34.818;2023-02-13T12:09:13;101631.34;;;23.96;33.75
23619;BME280;18207;32.078;34.818;2023-02-13T12:11:49;101626.06;;;23.94;33.44
23619;BME280;18207;32.078;34.818;2023-02-13T12:14:26;101631.69;;;23.94;33.55
23619;BME280;18207;32.078;34.818;2023-02-13T12:17:04;101624.75;;;23.92;33.36
23619;BME280;18207;32.078;34.818;2023-02-13T12:19:45;101625.91;;;23.91;33.57
23619;BME280;18207;32.078;34.818;2023-02-13T12:22:41;101630.22;;;23.88;33.71
23619;BME280;18207;32.078;34.818;2023-02-13T12:25:44;101627.25;;;23.85;33.33
23619;BME280;18207;32.078;34.818;2023-02-13T12:28:23;101624.28;;;23.81;33.72
23619;BME280;18207;32.078;34.818;2023-02-13T12:31:44;101634.88;;;23.76;33.55
23619;BME280;18207;32.078;34.818;2023-02-13T12:34:50;101633.06;;;23.71;33.54
23619;BME280;18207;32.078;34.818;2023-02-13T12:37:49;101629.28;;;23.67;33.44
23619;BME280;18207;32.078;34.818;2023-02-13T12:40:43;101641.97;;;23.65;33.11
23619;BME280;18207;32.078;34.818;2023-02-13T12:46:55;101631.75;;;23.60;33.61
23619;BME280;18207;32.078;34.818;2023-02-13T12:49:59;101637.38;;;23.60;33.41
23619;BME280;18207;32.078;34.818;2023-02-13T12:52:45;101626.50;;;23.59;33.79
23619;BME280;18207;32.078;34.818;2023-02-13T12:55:50;101629.66;;;23.57;33.57
23619;BME280;18207;32.078;34.818;2023-02-13T12:59:00;101629.16;;;23.55;33.61
23619;BME280;18207;32.078;34.818;2023-02-13T13:05:08;101616.63;;;23.53;33.62
23619;BME280;18207;32.078;34.818;2023-02-13T13:08:17;101620.91;;;23.50;33.78
23619;BME280;18207;32.078;34.818;2023-02-13T13:11:13;101612.03;;;23.48;33.64
23619;BME280;18207;32.078;34.818;2023-02-13T13:13:59;101612.34;;;23.47;33.33
23619;BME280;18207;32.078;34.818;2023-02-13T13:16:42;101619.09;;;23.46;33.45
23619;BME280;18207;32.078;34.818;2023-02-13T13:19:29;101619.44;;;23.44;33.20
23619;BME280;18207;32.078;34.818;2023-02-13T13:22:10;101614.97;;;23.43;33.01
23619;BME280;18207;32.078;34.818;2023-02-13T13:24:58;101602.13;;;23.42;33.52
23619;BME280;18207;32.078;34.818;2023-02-13T13:27:48;101610.03;;;23.40;33.37
23619;BME280;18207;32.078;34.818;2023-02-13T13:30:25;101608.06;;;23.41;33.30
23619;BME280;18207;32.078;34.818;2023-02-13T13:33:03;101598.00;;;23.40;33.31
23619;BME280;18207;32.078;34.818;2023-02-13T13:35:39;101599.16;;;23.39;33.18
23619;BME280;18207;32.078;34.818;2023-02-13T13:38:20;101607.56;;;23.39;33.39
23619;BME280;18207;32.078;34.818;2023-02-13T13:41:00;101610.72;;;23.37;33.59
23619;BME280;18207;32.078;34.818;2023-02-13T13:43:51;101604.63;;;23.35;33.43